createdAt,value
2022-09-03T00:00:03.541Z,3.00
2022-09-03T00:02:45.691Z,2.40
2022-09-03T00:05:24.034Z,3.50
2022-09-03T00:08:02.581Z,2.72
2022-09-03T00:10:39.674Z,2.40
2022-09-03T00:13:11.437Z,2.65
2022-09-03T00:15:41.825Z,3.08
2022-09-03T00:18:16.003Z,2.38
2022-09-03T00:20:52.428Z,2.42
2022-09-03T00:23:26.346Z,2.60
2022-09-03T00:26:02.029Z,2.65
2022-09-03T00:28:39.528Z,2.55
2022-09-03T00:31:18.545Z,2.75
2022-09-03T00:33:49.642Z,2.42
2022-09-03T00:36:25.163Z,2.97
2022-09-03T00:38:54.228Z,2.20
2022-09-03T00:41:34.696Z,2.50
2022-09-03T00:44:36.148Z,2.00
2022-09-03T00:47:12.575Z,2.28
2022-09-03T00:49:59.512Z,3.08
2022-09-03T00:52:46.319Z,2.60
2022-09-03T00:55:31.018Z,2.20
2022-09-03T00:58:23.204Z,2.20
2022-09-03T01:00:53.956Z,2.30
2022-09-03T01:03:34.724Z,2.83
2022-09-03T01:06:20.205Z,2.05
2022-09-03T01:09:12.062Z,2.97
2022-09-03T01:11:57.037Z,2.30
2022-09-03T01:14:40.591Z,2.75
2022-09-03T01:17:22.594Z,2.40
2022-09-03T01:20:18.370Z,2.40
2022-09-03T01:23:30.322Z,2.55
2022-09-03T01:26:15.181Z,2.40
2022-09-03T01:28:58.386Z,2.40
2022-09-03T01:31:38.299Z,2.45
2022-09-03T01:34:22.226Z,2.45
2022-09-03T01:37:04.017Z,2.50
2022-09-03T01:39:42.279Z,2.40
2022-09-03T01:42:24.465Z,2.60
2022-09-03T01:45:29.149Z,2.97
2022-09-03T01:48:23.844Z,2.30
2022-09-03T01:51:00.128Z,2.58
2022-09-03T01:53:52.773Z,2.47
2022-09-03T01:56:39.336Z,2.58
2022-09-03T01:59:21.228Z,2.60
2022-09-03T02:01:58.817Z,2.33
2022-09-03T02:04:29.126Z,2.50
2022-09-03T02:07:01.507Z,2.20
2022-09-03T02:09:32.800Z,2.25
2022-09-03T02:12:10.982Z,2.75
2022-09-03T02:14:40.163Z,2.30
2022-09-03T02:17:11.686Z,2.90
2022-09-03T02:19:41.513Z,3.08
2022-09-03T02:22:10.806Z,2.38
2022-09-03T02:24:40.048Z,2.15
2022-09-03T02:27:09.246Z,2.55
2022-09-03T02:29:38.393Z,2.67
2022-09-03T02:32:07.573Z,2.42
2022-09-03T02:34:39.113Z,2.60
2022-09-03T02:37:15.373Z,2.17
2022-09-03T02:39:44.417Z,2.50
2022-09-03T02:42:15.850Z,2.40
2022-09-03T02:44:50.185Z,2.63
2022-09-03T02:47:20.708Z,2.08
2022-09-03T02:49:51.208Z,2.40
2022-09-03T02:52:20.273Z,2.45
2022-09-03T02:54:49.483Z,2.28
2022-09-03T02:57:23.837Z,2.75
2022-09-03T02:59:57.025Z,2.67
2022-09-03T03:02:26.250Z,2.10
2022-09-03T03:04:56.782Z,2.50
2022-09-03T03:07:26.618Z,2.15
2022-09-03T03:09:55.695Z,2.40
2022-09-03T03:12:25.199Z,2.42
2022-09-03T03:14:54.311Z,2.78
2022-09-03T03:17:23.506Z,2.22
2022-09-03T03:19:52.497Z,2.80
2022-09-03T03:22:22.903Z,2.55
2022-09-03T03:24:52.834Z,2.45
2022-09-03T03:27:22.500Z,2.92
2022-09-03T03:29:52.227Z,2.92
2022-09-03T03:32:21.225Z,2.03
2022-09-03T03:34:50.286Z,2.60
2022-09-03T03:37:19.325Z,3.00
2022-09-03T03:39:49.728Z,2.65
2022-09-03T03:42:18.974Z,3.00
2022-09-03T03:44:48.151Z,3.00
2022-09-03T03:47:18.423Z,2.70
2022-09-03T03:49:47.455Z,2.97
2022-09-03T03:52:16.476Z,2.75
2022-09-03T03:54:45.525Z,3.10
2022-09-03T03:57:15.925Z,2.67
2022-09-03T03:59:44.998Z,2.95
2022-09-03T04:02:15.145Z,2.72
2022-09-03T04:04:44.210Z,2.30
2022-09-03T04:07:13.381Z,2.65
2022-09-03T04:09:42.561Z,2.97
2022-09-03T04:12:11.653Z,2.80
2022-09-03T04:14:42.993Z,2.33
2022-09-03T04:17:12.158Z,2.60
2022-09-03T04:19:41.259Z,3.03
2022-09-03T04:22:10.335Z,2.72
2022-09-03T04:24:39.406Z,3.47
2022-09-03T04:27:08.907Z,2.95
2022-09-03T04:29:38.027Z,2.85
2022-09-03T04:32:26.907Z,2.50
2022-09-03T04:34:56.112Z,2.80
2022-09-03T04:37:25.255Z,2.75
2022-09-03T04:39:54.307Z,2.75
2022-09-03T04:42:23.615Z,3.63
2022-09-03T04:44:52.698Z,2.88
2022-09-03T04:47:23.562Z,3.58
2022-09-03T04:49:54.167Z,2.70
2022-09-03T04:52:24.213Z,2.85
2022-09-03T04:54:53.227Z,2.80
2022-09-03T04:57:22.843Z,2.60
2022-09-03T04:59:51.903Z,2.60
2022-09-03T05:02:22.266Z,2.78
2022-09-03T05:04:52.319Z,2.72
2022-09-03T05:07:21.455Z,2.80
2022-09-03T05:09:51.405Z,3.05
2022-09-03T05:12:22.677Z,3.05
2022-09-03T05:14:51.798Z,3.10
2022-09-03T05:17:22.262Z,3.00
2022-09-03T05:19:51.546Z,3.60
2022-09-03T05:22:21.634Z,3.00
2022-09-03T05:24:51.029Z,3.10
2022-09-03T05:27:20.183Z,2.90
2022-09-03T05:29:49.446Z,3.60
2022-09-03T05:32:18.534Z,3.30
2022-09-03T05:34:48.987Z,3.63
2022-09-03T05:37:18.143Z,3.33
2022-09-03T05:39:47.243Z,3.10
2022-09-03T05:42:16.383Z,3.38
2022-09-03T05:44:45.544Z,3.47
2022-09-03T05:47:14.571Z,3.53
2022-09-03T05:49:43.727Z,2.85
2022-09-03T05:52:14.096Z,3.13
2022-09-03T05:54:43.194Z,3.10
2022-09-03T05:57:13.206Z,2.70
2022-09-03T05:59:42.352Z,3.80
2022-09-03T06:02:12.231Z,3.10
2022-09-03T06:04:41.521Z,3.45
2022-09-03T06:07:10.535Z,3.25
2022-09-03T06:09:41.914Z,3.53
2022-09-03T06:12:10.939Z,3.42
2022-09-03T06:14:40.035Z,3.15
2022-09-03T06:17:11.253Z,3.10
2022-09-03T06:19:40.501Z,2.75
2022-09-03T06:22:09.574Z,3.50
2022-09-03T06:24:40.033Z,3.25
2022-09-03T06:27:09.084Z,2.60
2022-09-03T06:29:38.933Z,2.97
2022-09-03T06:32:08.101Z,3.20
2022-09-03T06:34:39.214Z,3.00
2022-09-03T06:37:08.289Z,2.90
2022-09-03T06:39:37.437Z,3.60
2022-09-03T06:42:09.927Z,2.97
2022-09-03T06:44:39.603Z,3.03
2022-09-03T06:47:08.842Z,2.90
2022-09-03T06:49:38.774Z,3.33
2022-09-03T06:52:07.887Z,3.28
2022-09-03T06:54:40.764Z,2.88
2022-09-03T06:57:11.694Z,2.78
2022-09-03T06:59:40.895Z,3.35
2022-09-03T07:02:10.082Z,3.00
2022-09-03T07:04:39.335Z,3.35
2022-09-03T07:07:13.231Z,3.83
2022-09-03T07:09:46.395Z,3.10
2022-09-03T07:12:19.298Z,3.50
2022-09-03T07:14:48.806Z,3.25
2022-09-03T07:17:20.426Z,2.80
2022-09-03T07:19:49.602Z,3.20
2022-09-03T07:22:18.727Z,4.15
2022-09-03T07:24:47.936Z,3.03
2022-09-03T07:27:18.651Z,3.30
2022-09-03T07:29:47.793Z,3.10
2022-09-03T07:32:16.842Z,3.00
2022-09-03T07:34:46.001Z,3.28
2022-09-03T07:37:15.832Z,3.38
2022-09-03T07:39:45.074Z,3.65
2022-09-03T07:42:14.615Z,3.60
2022-09-03T07:44:45.137Z,3.53
2022-09-03T07:47:15.002Z,3.22
2022-09-03T07:49:48.072Z,3.10
2022-09-03T07:52:18.920Z,3.70
2022-09-03T07:54:47.993Z,3.35
2022-09-03T07:57:17.128Z,4.07
2022-09-03T07:59:47.986Z,3.47
2022-09-03T08:02:17.043Z,3.17
2022-09-03T08:04:46.206Z,2.90
2022-09-03T08:07:15.328Z,3.00
2022-09-03T08:09:44.502Z,3.38
2022-09-03T08:12:13.569Z,3.50
2022-09-03T08:14:42.731Z,3.50
2022-09-03T08:17:13.457Z,3.50
2022-09-03T08:19:43.771Z,4.20
2022-09-03T08:22:13.111Z,3.70
2022-09-03T08:24:43.286Z,3.33
2022-09-03T08:27:12.453Z,3.20
2022-09-03T08:29:42.099Z,3.30
2022-09-03T08:32:12.648Z,3.70
2022-09-03T08:34:43.536Z,3.95
2022-09-03T08:37:13.171Z,3.53
2022-09-03T08:39:42.470Z,3.90
2022-09-03T08:42:28.985Z,3.63
2022-09-03T08:45:02.982Z,3.80
2022-09-03T08:47:40.047Z,3.80
2022-09-03T08:50:14.592Z,3.93
2022-09-03T08:52:50.346Z,4.50
2022-09-03T08:55:26.803Z,3.50
2022-09-03T08:58:03.305Z,4.70
2022-09-03T09:00:45.879Z,4.10
2022-09-03T09:03:36.550Z,4.30
2022-09-03T09:06:17.893Z,4.97
2022-09-03T09:09:00.434Z,4.77
2022-09-03T09:11:49.821Z,4.20
2022-09-03T09:14:27.217Z,4.93
2022-09-03T09:17:06.098Z,5.30
2022-09-03T09:19:48.300Z,5.07
2022-09-03T09:22:28.777Z,5.45
2022-09-03T09:25:02.939Z,5.40
2022-09-03T09:27:33.896Z,5.00
2022-09-03T09:30:07.052Z,4.90
2022-09-03T09:32:38.677Z,4.23
2022-09-03T09:35:12.232Z,5.53
2022-09-03T09:37:50.797Z,4.90
2022-09-03T09:40:33.840Z,5.30
2022-09-03T09:43:12.808Z,4.70
2022-09-03T09:45:44.788Z,5.20
2022-09-03T09:48:22.556Z,5.37
2022-09-03T09:51:07.166Z,3.97
2022-09-03T09:53:36.516Z,4.37
2022-09-03T09:56:05.862Z,4.53
2022-09-03T09:58:36.711Z,3.83
2022-09-03T10:01:14.289Z,4.47
2022-09-03T10:03:55.944Z,4.87
2022-09-03T10:06:49.663Z,5.47
2022-09-03T10:09:22.085Z,4.63
2022-09-03T10:12:15.376Z,4.70
2022-09-03T10:14:51.389Z,4.50
2022-09-03T10:17:36.673Z,3.78
2022-09-03T10:20:30.920Z,4.13
2022-09-03T10:23:11.124Z,3.90
2022-09-03T10:25:53.579Z,4.03
2022-09-03T10:28:27.423Z,3.63
2022-09-03T10:31:16.084Z,3.73
2022-09-03T10:33:50.992Z,4.03
2022-09-03T10:36:26.508Z,4.77
2022-09-03T10:39:06.641Z,3.83
2022-09-03T10:41:55.883Z,4.40
2022-09-03T10:45:00.713Z,4.03
2022-09-03T10:47:45.505Z,4.30
2022-09-03T10:50:18.732Z,4.23
2022-09-03T10:53:08.792Z,3.43
2022-09-03T10:55:49.477Z,4.10
2022-09-03T10:58:42.021Z,4.13
2022-09-03T11:01:22.309Z,3.80
2022-09-03T11:04:04.947Z,3.87
2022-09-03T11:06:43.100Z,3.90
2022-09-03T11:09:20.107Z,3.95
2022-09-03T11:11:57.781Z,3.70
2022-09-03T11:14:37.094Z,3.67
2022-09-03T11:17:13.258Z,4.10
2022-09-03T11:19:50.959Z,3.43
2022-09-03T11:22:23.272Z,3.90
2022-09-03T11:24:58.170Z,4.10
2022-09-03T11:27:51.444Z,4.20
2022-09-03T11:30:49.974Z,4.20
2022-09-03T11:33:25.711Z,4.10
2022-09-03T11:36:00.957Z,4.40
2022-09-03T11:38:32.292Z,4.23
2022-09-03T11:41:11.850Z,4.23
2022-09-03T11:43:44.149Z,3.93
2022-09-03T11:46:29.515Z,4.57
2022-09-03T11:49:11.663Z,3.90
2022-09-03T11:51:44.156Z,4.40
2022-09-03T11:54:27.289Z,4.70
2022-09-03T11:57:13.917Z,3.53
2022-09-03T11:59:46.023Z,4.50
2022-09-03T12:02:29.899Z,5.63
2022-09-03T12:05:19.906Z,6.70
2022-09-03T12:08:16.849Z,4.83
2022-09-03T12:10:55.036Z,4.73
2022-09-03T12:13:47.886Z,4.43
2022-09-03T12:17:07.027Z,5.03
2022-09-03T12:19:43.084Z,4.83
2022-09-03T12:22:16.055Z,4.50
2022-09-03T12:24:45.830Z,4.73
2022-09-03T12:27:24.164Z,4.63
2022-09-03T12:30:01.138Z,5.03
2022-09-03T12:32:37.110Z,4.50
2022-09-03T12:38:40.628Z,4.10
2022-09-03T12:41:28.550Z,4.03
2022-09-03T12:44:01.195Z,4.67
2022-09-03T12:46:34.319Z,4.77
2022-09-03T12:52:06.382Z,5.60
2022-09-03T12:54:40.421Z,5.00
2022-09-03T12:57:10.931Z,3.10
2022-09-03T13:00:05.907Z,4.53
2022-09-03T13:02:52.606Z,4.47
2022-09-03T13:05:32.554Z,4.07
2022-09-03T13:08:04.157Z,3.00
2022-09-03T13:10:38.857Z,3.40
2022-09-03T13:13:23.113Z,3.20
2022-09-03T13:16:35.812Z,3.33
